createdAt,value
2022-11-29T00:00:53.557Z,99667.22
2022-11-29T00:03:56.563Z,99677.81
2022-11-29T00:06:58.805Z,99664.56
2022-11-29T00:10:01.107Z,99658.03
2022-11-29T00:13:03.868Z,99663.78
2022-11-29T00:16:08.676Z,99661.34
2022-11-29T00:19:12.367Z,99656.84
2022-11-29T00:22:14.657Z,99663.19
2022-11-29T00:25:17.357Z,99663.19
2022-11-29T00:28:19.653Z,99653.59
2022-11-29T00:31:25.018Z,99652.16
2022-11-29T00:34:27.682Z,99655.41
2022-11-29T00:37:29.936Z,99650.97
2022-11-29T00:40:32.206Z,99636.47
2022-11-29T00:43:34.810Z,99645.09
2022-11-29T00:46:38.341Z,99642.19
2022-11-29T00:49:40.674Z,99648.13
2022-11-29T00:52:42.952Z,99645.06
2022-11-29T00:55:49.747Z,99642.03
2022-11-29T00:58:52.047Z,99644.44
2022-11-29T01:01:54.314Z,99633.69
2022-11-29T01:04:56.742Z,99635.91
2022-11-29T01:07:59.403Z,99625.50
2022-11-29T01:11:14.889Z,99634.69
2022-11-29T01:14:17.122Z,99635.91
2022-11-29T01:17:19.348Z,99629.38
2022-11-29T01:20:21.793Z,99630.19
2022-11-29T01:23:24.153Z,99626.53
2022-11-29T01:26:28.919Z,99628.16
2022-11-29T01:29:31.166Z,99632.44
2022-11-29T01:32:33.519Z,99633.28
2022-11-29T01:35:35.765Z,99622.25
2022-11-29T01:38:38.101Z,99628.81
2022-11-29T01:41:40.358Z,99626.16
2022-11-29T01:44:46.350Z,99629.81
2022-11-29T01:47:51.865Z,99611.44
2022-11-29T01:50:57.915Z,99631.84
2022-11-29T01:54:00.321Z,99626.13
2022-11-29T01:57:05.805Z,99632.44
2022-11-29T02:00:12.233Z,99627.78
2022-11-29T02:03:18.887Z,99634.28
2022-11-29T02:06:22.162Z,99634.09
2022-11-29T02:09:24.383Z,99625.91
2022-11-29T02:12:40.499Z,99629.81
2022-11-29T02:16:18.218Z,99634.47
2022-11-29T02:19:48.233Z,99631.63
2022-11-29T02:23:02.383Z,99634.66
2022-11-29T02:26:22.743Z,99641.78
2022-11-29T02:29:50.207Z,99646.66
2022-11-29T02:33:30.239Z,99650.13
2022-11-29T02:36:56.857Z,99640.56
2022-11-29T02:40:23.931Z,99632.84
2022-11-29T02:43:26.154Z,99641.97
2022-11-29T02:47:02.759Z,99634.44
2022-11-29T02:50:23.624Z,99648.88
2022-11-29T02:53:53.687Z,99633.84
2022-11-29T02:56:55.841Z,99649.69
2022-11-29T03:00:18.041Z,99644.41
2022-11-29T03:03:43.647Z,99653.38
2022-11-29T03:07:09.038Z,99647.88
2022-11-29T03:10:29.576Z,99648.09
2022-11-29T03:13:56.647Z,99645.44
2022-11-29T03:17:52.509Z,99640.72
2022-11-29T03:20:54.742Z,99650.91
2022-11-29T03:24:07.317Z,99645.44
2022-11-29T03:27:28.437Z,99636.25
2022-11-29T03:30:34.575Z,99643.19
2022-11-29T03:33:58.615Z,99642.38
2022-11-29T03:37:18.596Z,99634.81
2022-11-29T03:40:26.461Z,99653.56
2022-11-29T03:43:57.889Z,99651.53
2022-11-29T03:47:18.426Z,99647.28
2022-11-29T03:50:26.462Z,99654.56
2022-11-29T03:53:36.064Z,99659.06
2022-11-29T03:56:40.603Z,99657.19
2022-11-29T04:00:09.849Z,99665.13
2022-11-29T04:03:36.759Z,99662.50
2022-11-29T04:06:57.315Z,99663.53
2022-11-29T04:10:05.570Z,99674.53
2022-11-29T04:13:13.844Z,99673.28
2022-11-29T04:16:46.733Z,99676.53
2022-11-29T04:20:11.029Z,99679.19
2022-11-29T04:23:47.004Z,99676.53
2022-11-29T04:27:01.518Z,99677.75
2022-11-29T04:30:20.524Z,99678.16
2022-11-29T04:33:25.507Z,99683.84
2022-11-29T04:36:49.036Z,99675.09
2022-11-29T04:40:03.997Z,99675.91
2022-11-29T04:43:41.473Z,99684.03
2022-11-29T04:47:02.292Z,99678.56
2022-11-29T04:50:20.209Z,99681.59
2022-11-29T04:53:57.970Z,99690.13
2022-11-29T04:57:21.118Z,99689.69
2022-11-29T05:00:24.893Z,99691.13
2022-11-29T05:03:38.742Z,99689.69
2022-11-29T05:06:54.959Z,99691.34
2022-11-29T05:10:24.424Z,99697.63
2022-11-29T05:13:26.586Z,99704.19
2022-11-29T05:16:45.407Z,99699.44
2022-11-29T05:20:15.495Z,99702.09
2022-11-29T05:23:51.681Z,99707.22
2022-11-29T05:27:15.489Z,99708.41
2022-11-29T05:30:24.003Z,99704.09
2022-11-29T05:33:38.165Z,99709.25
2022-11-29T05:37:12.546Z,99718.78
2022-11-29T05:40:44.275Z,99719.00
2022-11-29T05:44:31.057Z,99718.41
2022-11-29T05:47:47.282Z,99722.44
2022-11-29T05:51:07.094Z,99714.13
2022-11-29T05:54:28.102Z,99724.28
2022-11-29T05:57:36.431Z,99719.34
2022-11-29T06:00:51.587Z,99723.41
2022-11-29T06:04:04.400Z,99729.19
2022-11-29T06:07:37.475Z,99731.44
2022-11-29T06:10:52.004Z,99726.53
2022-11-29T06:14:08.654Z,99734.09
2022-11-29T06:17:34.345Z,99739.16
2022-11-29T06:21:00.106Z,99734.63
2022-11-29T06:24:26.370Z,99747.75
2022-11-29T06:27:29.524Z,99743.28
2022-11-29T06:31:05.145Z,99751.81
2022-11-29T06:34:20.390Z,99751.19
2022-11-29T06:37:38.770Z,99730.91
2022-11-29T06:40:41.400Z,99759.75
2022-11-29T06:43:43.942Z,99755.66
2022-11-29T06:48:02.993Z,99750.81
2022-11-29T06:51:42.958Z,99758.94
2022-11-29T06:55:17.854Z,99749.19
2022-11-29T06:58:40.403Z,99752.63
2022-11-29T07:01:57.290Z,99755.34
2022-11-29T07:05:21.047Z,99754.50
2022-11-29T07:08:24.491Z,99756.09
2022-11-29T07:11:27.864Z,99770.19
2022-11-29T07:14:30.458Z,99759.38
2022-11-29T07:18:11.455Z,99761.88
2022-11-29T07:21:25.178Z,99765.97
2022-11-29T07:24:47.209Z,99764.13
2022-11-29T07:27:52.511Z,99764.13
2022-11-29T07:31:24.996Z,99756.00
2022-11-29T07:48:52.288Z,99766.19
2022-11-29T07:51:55.698Z,99745.16
2022-11-29T07:54:58.038Z,99769.28
2022-11-29T07:58:00.431Z,99777.03
2022-11-29T08:01:03.291Z,99775.59
2022-11-29T08:04:06.299Z,99775.00
2022-11-29T08:07:40.964Z,99784.75
2022-11-29T08:10:43.496Z,99777.63
2022-11-29T08:13:46.098Z,99766.84
2022-11-29T08:16:48.681Z,99776.81
2022-11-29T08:19:51.948Z,99774.81
2022-11-29T08:22:56.464Z,99776.44
2022-11-29T08:26:00.530Z,99777.47
2022-11-29T08:29:02.846Z,99770.13
2022-11-29T08:32:06.048Z,99768.31
2022-11-29T08:35:08.689Z,99768.13
2022-11-29T08:38:11.258Z,99763.41
2022-11-29T08:41:16.057Z,99772.59
2022-11-29T08:44:18.491Z,99776.47
2022-11-29T08:48:11.259Z,99777.28
2022-11-29T08:51:13.839Z,99778.91
2022-11-29T08:54:16.458Z,99773.22
2022-11-29T09:00:44.224Z,99784.63
2022-11-29T09:04:07.162Z,99777.69
2022-11-29T09:07:41.576Z,99779.94
2022-11-29T09:10:44.331Z,99778.56
2022-11-29T09:15:14.420Z,99777.28
2022-11-29T09:18:16.878Z,99757.91
2022-11-29T09:21:19.687Z,99775.28
2022-11-29T09:24:22.074Z,99773.09
2022-11-29T09:27:24.342Z,99771.22
2022-11-29T09:30:29.934Z,99764.31
2022-11-29T09:33:32.448Z,99761.06
2022-11-29T09:36:35.073Z,99765.56
2022-11-29T09:39:38.202Z,99769.44
2022-11-29T09:43:16.090Z,99766.81
2022-11-29T09:46:18.904Z,99758.03
2022-11-29T09:49:49.111Z,99759.25
2022-11-29T09:53:19.830Z,99754.59
2022-11-29T09:56:31.340Z,99753.19
2022-11-29T09:59:42.965Z,99753.59
2022-11-29T10:02:53.977Z,99753.03
2022-11-29T10:06:24.605Z,99750.56
2022-11-29T10:09:44.360Z,99736.13
2022-11-29T10:13:20.541Z,99737.34
2022-11-29T10:22:17.341Z,99726.34
2022-11-29T10:25:45.519Z,99722.69
2022-11-29T10:28:49.418Z,99719.25
2022-11-29T10:31:56.638Z,99717.81
2022-11-29T10:35:00.949Z,99713.13
2022-11-29T10:38:29.752Z,99720.13
2022-11-29T10:41:28.003Z,99721.16
2022-11-29T10:44:33.532Z,99718.72
2022-11-29T10:47:36.443Z,99717.75
2022-11-29T10:50:44.043Z,99703.69
2022-11-29T10:53:49.115Z,99711.19
2022-11-29T10:56:52.295Z,99713.03
2022-11-29T11:00:11.787Z,99715.28
2022-11-29T11:03:17.398Z,99709.56
2022-11-29T11:06:25.847Z,99709.16
2022-11-29T11:09:30.983Z,99713.03
2022-11-29T11:12:37.114Z,99713.59
2022-11-29T11:15:39.413Z,99709.94
2022-11-29T11:18:41.898Z,99712.22
2022-11-29T11:21:44.374Z,99708.75
2022-11-29T11:24:47.049Z,99712.22
2022-11-29T11:27:49.576Z,99703.44
2022-11-29T11:30:55.789Z,99712.03
2022-11-29T11:34:23.933Z,99712.03
2022-11-29T11:37:35.750Z,99716.28
2022-11-29T11:40:38.457Z,99720.38
2022-11-29T11:43:41.263Z,99723.47
2022-11-29T11:46:56.708Z,99729.38
2022-11-29T11:50:52.209Z,99716.31
2022-11-29T11:53:57.788Z,99719.78
2022-11-29T11:57:00.590Z,99722.44
2022-11-29T12:00:07.202Z,99715.13
2022-11-29T12:03:47.823Z,99716.94
2022-11-29T12:06:53.109Z,99721.41
2022-11-29T12:14:57.893Z,99716.94
2022-11-29T12:18:38.117Z,99711.22
2022-11-29T12:22:50.247Z,99712.66
2022-11-29T12:26:00.437Z,99718.16
2022-11-29T12:29:02.882Z,99718.34
2022-11-29T12:32:30.883Z,99712.25
2022-11-29T12:36:17.395Z,99711.69
2022-11-29T12:39:28.543Z,99705.97
2022-11-29T12:42:52.115Z,99708.78
2022-11-29T12:46:15.237Z,99699.63
2022-11-29T12:49:27.946Z,99699.81
2022-11-29T12:53:05.579Z,99695.94
2022-11-29T12:56:21.845Z,99697.59
2022-11-29T12:59:45.461Z,99703.47
2022-11-29T13:02:59.053Z,99694.53
2022-11-29T13:06:19.195Z,99691.06
2022-11-29T13:09:27.509Z,99699.25
2022-11-29T13:12:39.817Z,99697.00
2022-11-29T13:15:56.660Z,99700.25
2022-11-29T13:19:34.631Z,99697.38
2022-11-29T13:27:36.847Z,99703.47
2022-11-29T13:30:40.093Z,99699.81
2022-11-29T13:33:51.555Z,99707.97
2022-11-29T13:37:30.419Z,99704.09
2022-11-29T13:40:59.892Z,99693.09
2022-11-29T13:44:23.994Z,99694.91
2022-11-29T13:47:26.553Z,99715.28
2022-11-29T13:50:44.732Z,99701.44
2022-11-29T13:55:08.036Z,99707.72
2022-11-29T13:59:29.568Z,99703.25
2022-11-29T14:02:32.203Z,99705.06
2022-11-29T14:05:38.989Z,99708.13
2022-11-29T14:12:28.035Z,99708.31
2022-11-29T14:15:32.685Z,99694.66
2022-11-29T14:18:38.020Z,99704.25
2022-11-29T14:21:58.908Z,99709.75
2022-11-29T14:25:16.395Z,99704.81
2022-11-29T14:28:25.175Z,99707.81
2022-11-29T14:31:48.550Z,99700.72
2022-11-29T14:35:03.245Z,99707.81
2022-11-29T14:38:37.993Z,99709.69
2022-11-29T14:41:52.640Z,99702.13
2022-11-29T14:45:06.335Z,99698.66
2022-11-29T14:48:26.948Z,99701.94
2022-11-29T14:51:31.618Z,99702.31
2022-11-29T14:54:35.623Z,99698.84
2022-11-29T15:02:38.013Z,99708.66
2022-11-29T15:05:45.186Z,99706.88
2022-11-29T15:09:20.706Z,99709.97
2022-11-29T15:12:27.675Z,99709.56
2022-11-29T15:16:13.688Z,99705.09
2022-11-29T15:19:43.482Z,99703.66
2022-11-29T15:22:51.972Z,99692.59
2022-11-29T15:25:59.801Z,99704.44
2022-11-29T15:29:17.337Z,99683.63
2022-11-29T15:32:28.629Z,99704.63
2022-11-29T15:35:33.764Z,99705.47
2022-11-29T15:38:45.678Z,99701.00
2022-11-29T15:41:47.887Z,99700.16
2022-11-29T15:44:52.953Z,99698.69
2022-11-29T15:47:56.135Z,99687.88
2022-11-29T15:51:08.296Z,99699.53
2022-11-29T15:54:17.309Z,99699.53
2022-11-29T15:57:26.758Z,99696.03
2022-11-29T16:00:31.563Z,99698.06
2022-11-29T16:03:38.000Z,99689.50
2022-11-29T16:06:44.360Z,99704.56
2022-11-29T16:10:04.784Z,99701.94
2022-11-29T16:13:31.128Z,99707.22
2022-11-29T16:16:35.778Z,99708.03
2022-11-29T16:19:40.558Z,99710.88
2022-11-29T16:22:42.934Z,99711.69
2022-11-29T16:31:00.065Z,99715.56
2022-11-29T16:34:18.138Z,99719.03
2022-11-29T16:37:22.442Z,99710.25
2022-11-29T16:40:30.254Z,99716.56
2022-11-29T16:43:47.491Z,99732.66
2022-11-29T16:46:49.824Z,99723.88
2022-11-29T16:50:16.772Z,99722.06
2022-11-29T16:53:35.987Z,99727.31
2022-11-29T16:56:39.076Z,99733.44
2022-11-29T16:59:41.353Z,99741.81
2022-11-29T17:02:43.840Z,99743.22
2022-11-29T17:05:46.195Z,99741.97
2022-11-29T17:08:52.654Z,99747.88
2022-11-29T17:11:56.841Z,99740.34
2022-11-29T17:14:59.085Z,99747.28
2022-11-29T17:18:01.373Z,99744.41
2022-11-29T17:21:04.282Z,99754.78
2022-11-29T17:24:09.589Z,99759.06
2022-11-29T17:27:11.901Z,99750.88
2022-11-29T17:30:14.474Z,99764.97
2022-11-29T17:33:16.849Z,99760.06
2022-11-29T17:36:20.618Z,99758.03
2022-11-29T17:39:23.056Z,99761.91
2022-11-29T17:42:25.461Z,99762.72
2022-11-29T17:45:27.788Z,99758.81
2022-11-29T17:48:33.538Z,99763.94
2022-11-29T17:51:51.834Z,99755.56
2022-11-29T17:54:55.234Z,99758.63
2022-11-29T17:57:57.470Z,99756.38
2022-11-29T18:01:13.530Z,99757.00
2022-11-29T18:04:15.985Z,99759.84
2022-11-29T18:07:18.504Z,99751.91
2022-11-29T18:10:20.816Z,99757.38
2022-11-29T18:13:23.113Z,99754.75
2022-11-29T18:16:30.886Z,99750.66
2022-11-29T18:19:33.837Z,99755.34
2022-11-29T18:22:37.302Z,99751.88
2022-11-29T18:25:40.256Z,99767.16
2022-11-29T18:28:44.225Z,99754.69
2022-11-29T18:31:46.811Z,99754.69
2022-11-29T18:34:49.190Z,99756.97
2022-11-29T18:38:14.245Z,99753.88
2022-11-29T18:41:18.066Z,99767.34
2022-11-29T18:44:29.579Z,99763.06
2022-11-29T18:47:33.090Z,99772.00
2022-11-29T18:50:35.389Z,99764.28
2022-11-29T18:53:38.964Z,99770.81
2022-11-29T18:56:41.606Z,99769.38
2022-11-29T18:59:43.853Z,99782.41
2022-11-29T19:02:46.218Z,99772.41
2022-11-29T19:05:54.041Z,99774.88
2022-11-29T19:08:58.433Z,99787.06
2022-11-29T19:12:02.379Z,99780.34
2022-11-29T19:15:05.504Z,99780.16
2022-11-29T19:18:07.778Z,99778.34
2022-11-29T19:21:15.260Z,99774.44
2022-11-29T19:24:18.730Z,99779.13
2022-11-29T19:27:26.113Z,99765.84
2022-11-29T19:30:28.386Z,99779.13
2022-11-29T19:33:31.024Z,99777.91
2022-11-29T19:36:33.350Z,99775.44
2022-11-29T19:39:35.750Z,99779.50
2022-11-29T19:42:38.427Z,99786.66
2022-11-29T19:45:40.906Z,99781.38
2022-11-29T19:48:43.684Z,99789.09
2022-11-29T19:51:45.905Z,99772.16
2022-11-29T19:54:48.156Z,99776.88
2022-11-29T19:57:50.401Z,99772.16
2022-11-29T20:00:52.701Z,99773.16
2022-11-29T20:03:55.998Z,99777.63
2022-11-29T20:06:58.328Z,99774.59
2022-11-29T20:10:00.613Z,99773.78
2022-11-29T20:13:02.966Z,99774.59
2022-11-29T20:16:11.277Z,99773.78
2022-11-29T20:19:16.209Z,99769.69
2022-11-29T20:22:18.525Z,99762.97
2022-11-29T20:25:20.761Z,99768.50
2022-11-29T20:28:23.458Z,99770.53
2022-11-29T20:31:26.370Z,99768.69
2022-11-29T20:34:28.859Z,99765.25
2022-11-29T20:37:37.225Z,99774.00
2022-11-29T20:41:01.048Z,99773.00
2022-11-29T20:44:05.622Z,99773.16
2022-11-29T20:47:13.857Z,99763.16
2022-11-29T20:50:24.940Z,99775.38
2022-11-29T20:53:32.143Z,99768.09
2022-11-29T20:56:34.429Z,99768.28
2022-11-29T20:59:36.930Z,99767.88
2022-11-29T21:02:39.572Z,99767.44
2022-11-29T21:05:42.091Z,99771.91
2022-11-29T21:08:44.453Z,99761.34
2022-11-29T21:11:47.069Z,99769.09
2022-11-29T21:14:49.541Z,99761.34
2022-11-29T21:17:52.273Z,99763.75
2022-11-29T21:21:10.821Z,99770.31
2022-11-29T21:24:34.006Z,99771.91
2022-11-29T21:27:36.699Z,99762.38
2022-11-29T21:30:39.275Z,99770.31
2022-11-29T21:33:41.772Z,99780.88
2022-11-29T21:36:45.194Z,99776.38
2022-11-29T21:39:51.425Z,99780.66
2022-11-29T21:42:53.724Z,99779.84
2022-11-29T21:45:57.296Z,99773.56
2022-11-29T21:48:59.606Z,99776.59
2022-11-29T21:52:02.213Z,99773.94
2022-11-29T21:55:04.874Z,99779.03
2022-11-29T21:58:07.159Z,99775.38
2022-11-29T22:01:15.106Z,99772.94
2022-11-29T22:04:17.704Z,99773.13
2022-11-29T22:07:20.019Z,99770.69
2022-11-29T22:10:22.304Z,99766.19
2022-11-29T22:13:24.548Z,99771.09
2022-11-29T22:16:27.601Z,99769.03
2022-11-29T22:19:33.090Z,99769.28
2022-11-29T22:22:35.440Z,99768.66
2022-11-29T22:25:37.731Z,99770.31
2022-11-29T22:28:40.029Z,99779.84
2022-11-29T22:31:48.434Z,99768.03
2022-11-29T22:34:50.741Z,99771.31
2022-11-29T22:37:52.973Z,99762.16
2022-11-29T22:40:59.798Z,99763.75
2022-11-29T22:44:02.715Z,99771.75
2022-11-29T22:47:05.052Z,99761.94
2022-11-29T22:50:07.761Z,99760.28
2022-11-29T22:53:10.088Z,99757.25
2022-11-29T22:56:12.580Z,99761.72
2022-11-29T22:59:14.825Z,99752.78
2022-11-29T23:02:17.221Z,99739.31
2022-11-29T23:05:19.517Z,99744.25
2022-11-29T23:08:22.003Z,99747.69
2022-11-29T23:11:27.093Z,99747.69
2022-11-29T23:14:29.411Z,99750.31
2022-11-29T23:17:31.698Z,99739.56
2022-11-29T23:20:33.913Z,99735.28
2022-11-29T23:23:37.095Z,99732.63
2022-11-29T23:26:42.570Z,99739.13
2022-11-29T23:29:44.931Z,99742.22
2022-11-29T23:32:47.259Z,99730.59
2022-11-29T23:35:50.919Z,99734.44
2022-11-29T23:38:53.249Z,99730.19
2022-11-29T23:41:55.499Z,99730.75
2022-11-29T23:44:57.790Z,99733.84
2022-11-29T23:48:00.120Z,99731.81
2022-11-29T23:51:02.541Z,99729.56
2022-11-29T23:54:04.851Z,99737.47
2022-11-29T23:57:07.350Z,99735.66
